createdAt,value
2019-03-09T00:00:42.332Z,100150.55
2019-03-09T00:03:16.537Z,100150.27
2019-03-09T00:05:47.782Z,100154.16
2019-03-09T00:08:18.674Z,100151.61
2019-03-09T00:11:00.123Z,100152.55
2019-03-09T00:13:48.667Z,100151.27
2019-03-09T00:16:21.338Z,100149.58
2019-03-09T00:18:53.726Z,100159.66
2019-03-09T00:21:24.783Z,100156.41
2019-03-09T00:24:04.423Z,100149.19
2019-03-09T00:26:37.080Z,100145.73
2019-03-09T00:29:24.273Z,100151.45
2019-03-09T00:31:56.897Z,100153.73
2019-03-09T00:34:30.378Z,100161.86
2019-03-09T00:37:01.648Z,100153.84
2019-03-09T00:39:32.587Z,100153.73
2019-03-09T00:42:04.342Z,100156.39
2019-03-09T00:44:36.484Z,100154.66
2019-03-09T00:47:07.484Z,100163.58
2019-03-09T00:49:38.515Z,100155.45
2019-03-09T00:52:09.524Z,100167.91
2019-03-09T00:54:40.468Z,100172.66
2019-03-09T00:57:11.513Z,100172.78
2019-03-09T00:59:42.455Z,100176.13
2019-03-09T01:02:13.389Z,100181.65
2019-03-09T01:04:44.386Z,100173.73
2019-03-09T01:07:15.321Z,100177.66
2019-03-09T01:09:46.244Z,100184.13
2019-03-09T01:12:17.191Z,100195.27
2019-03-09T01:14:48.109Z,100190.13
2019-03-09T01:17:19.055Z,100190.53
2019-03-09T01:19:50.046Z,100193.06
2019-03-09T01:22:20.984Z,100191.92
2019-03-09T01:24:51.982Z,100199.24
2019-03-09T01:27:22.906Z,100198.78
2019-03-09T01:29:53.889Z,100200.25
2019-03-09T01:32:24.810Z,100193.13
2019-03-09T01:34:55.710Z,100201.44
2019-03-09T01:37:26.672Z,100206.64
2019-03-09T01:39:57.667Z,100205.14
2019-03-09T01:42:29.495Z,100213.45
2019-03-09T01:45:00.558Z,100219.47
2019-03-09T01:47:32.592Z,100213.14
2019-03-09T01:50:06.620Z,100226.98
2019-03-09T01:52:37.654Z,100223.24
2019-03-09T01:55:11.267Z,100222.52
2019-03-09T01:57:42.246Z,100225.44
2019-03-09T02:00:14.816Z,100231.31
2019-03-09T02:02:45.747Z,100235.22
2019-03-09T02:05:16.654Z,100235.80
2019-03-09T02:07:47.572Z,100233.42
2019-03-09T02:10:18.493Z,100236.77
2019-03-09T02:12:49.444Z,100240.16
2019-03-09T02:15:20.362Z,100232.56
2019-03-09T02:17:51.393Z,100236.56
2019-03-09T02:20:22.297Z,100239.17
2019-03-09T02:22:53.335Z,100245.81
2019-03-09T02:25:24.232Z,100249.52
2019-03-09T02:27:55.204Z,100247.47
2019-03-09T02:30:26.108Z,100244.34
2019-03-09T02:32:57.054Z,100252.80
2019-03-09T02:35:27.976Z,100266.61
2019-03-09T02:38:00.675Z,100260.50
2019-03-09T02:40:31.654Z,100260.61
2019-03-09T02:43:03.601Z,100262.72
2019-03-09T02:45:34.652Z,100258.98
2019-03-09T02:48:05.704Z,100272.90
2019-03-09T02:50:38.274Z,100264.22
2019-03-09T02:53:09.264Z,100284.75
2019-03-09T02:55:41.305Z,100285.55
2019-03-09T02:58:12.241Z,100284.20
2019-03-09T03:00:44.782Z,100285.42
2019-03-09T03:03:15.725Z,100285.67
2019-03-09T03:05:46.651Z,100291.86
2019-03-09T03:08:17.599Z,100293.03
2019-03-09T03:10:48.514Z,100297.34
2019-03-09T03:13:19.454Z,100299.57
2019-03-09T03:15:50.397Z,100292.67
2019-03-09T03:18:21.324Z,100300.96
2019-03-09T03:20:52.237Z,100302.48
2019-03-09T03:23:23.152Z,100312.47
2019-03-09T03:25:54.082Z,100310.42
2019-03-09T03:28:25.047Z,100323.75
2019-03-09T03:30:56.019Z,100320.78
2019-03-09T03:33:28.638Z,100318.66
2019-03-09T03:35:59.551Z,100324.50
2019-03-09T03:38:30.484Z,100330.40
2019-03-09T03:41:01.394Z,100341.13
2019-03-09T03:43:32.359Z,100335.00
2019-03-09T03:46:03.335Z,100345.33
2019-03-09T03:48:34.279Z,100340.02
2019-03-09T03:51:05.178Z,100351.25
2019-03-09T03:53:36.108Z,100337.18
2019-03-09T03:56:07.019Z,100353.33
2019-03-09T03:58:37.928Z,100342.70
2019-03-09T04:01:08.915Z,100358.64
2019-03-09T04:03:39.932Z,100356.73
2019-03-09T04:06:10.850Z,100357.93
2019-03-09T04:08:41.850Z,100354.00
2019-03-09T04:11:12.753Z,100339.84
2019-03-09T04:13:43.748Z,100337.98
2019-03-09T04:16:14.658Z,100342.44
2019-03-09T04:18:45.588Z,100331.19
2019-03-09T04:21:16.474Z,100343.70
2019-03-09T04:23:47.450Z,100347.22
2019-03-09T04:26:18.385Z,100354.25
2019-03-09T04:28:49.315Z,100347.62
2019-03-09T04:31:20.205Z,100348.95
2019-03-09T04:33:51.155Z,100341.56
2019-03-09T04:36:22.090Z,100339.33
2019-03-09T04:38:53.068Z,100351.08
2019-03-09T04:41:23.963Z,100355.80
2019-03-09T04:43:55.871Z,100357.03
2019-03-09T04:46:26.813Z,100360.30
2019-03-09T04:48:57.907Z,100359.12
2019-03-09T04:51:28.882Z,100369.88
2019-03-09T04:53:59.936Z,100361.26
2019-03-09T04:56:30.907Z,100373.28
2019-03-09T04:59:01.855Z,100369.23
2019-03-09T05:01:32.874Z,100370.13
2019-03-09T05:04:27.649Z,100367.99
2019-03-09T05:06:58.543Z,100379.76
2019-03-09T05:09:53.823Z,100385.45
2019-03-09T05:12:24.776Z,100381.84
2019-03-09T05:14:55.712Z,100383.83
2019-03-09T05:17:26.703Z,100388.48
2019-03-09T05:19:57.683Z,100382.84
2019-03-09T05:22:28.589Z,100383.44
2019-03-09T05:24:59.516Z,100387.08
2019-03-09T05:27:30.490Z,100382.57
2019-03-09T05:30:01.443Z,100389.75
2019-03-09T05:32:32.416Z,100393.31
2019-03-09T05:35:04.094Z,100390.13
2019-03-09T05:37:42.884Z,100381.62
2019-03-09T05:40:08.424Z,100390.39
2019-03-09T05:42:40.389Z,100399.78
2019-03-09T05:45:12.212Z,100394.93
2019-03-09T05:47:43.263Z,100399.30
2019-03-09T05:50:14.229Z,100401.72
2019-03-09T05:52:48.376Z,100412.94
2019-03-09T05:55:19.322Z,100416.41
2019-03-09T05:57:50.220Z,100417.44
2019-03-09T06:00:21.270Z,100418.33
2019-03-09T06:02:52.158Z,100421.62
2019-03-09T06:05:35.168Z,100422.67
2019-03-09T06:08:06.719Z,100415.58
2019-03-09T06:10:37.699Z,100415.98
2019-03-09T06:13:08.612Z,100420.95
2019-03-09T06:15:39.554Z,100420.17
2019-03-09T06:18:10.572Z,100424.64
2019-03-09T06:20:41.683Z,100419.31
2019-03-09T06:23:12.683Z,100412.27
2019-03-09T06:25:43.758Z,100414.02
2019-03-09T06:28:14.664Z,100414.95
2019-03-09T06:30:45.699Z,100419.25
2019-03-09T06:33:24.580Z,100416.27
2019-03-09T06:36:01.376Z,100418.24
2019-03-09T06:38:38.339Z,100423.58
2019-03-09T06:41:12.769Z,100431.17
2019-03-09T06:43:43.681Z,100433.37
2019-03-09T06:46:14.636Z,100435.13
2019-03-09T06:48:46.791Z,100434.14
2019-03-09T06:51:17.742Z,100436.63
2019-03-09T06:53:48.624Z,100438.06
2019-03-09T06:56:19.801Z,100434.66
2019-03-09T06:59:07.539Z,100430.48
2019-03-09T07:01:37.658Z,100435.05
2019-03-09T07:04:12.182Z,100433.27
2019-03-09T07:06:45.734Z,100426.92
2019-03-09T07:09:21.339Z,100429.49
2019-03-09T07:11:52.371Z,100428.45
2019-03-09T07:14:55.575Z,100422.27
2019-03-09T07:17:30.929Z,100422.95
2019-03-09T07:20:11.828Z,100425.23
2019-03-09T07:22:34.641Z,100424.30
2019-03-09T07:25:07.177Z,100415.80
2019-03-09T07:27:38.216Z,100419.83
2019-03-09T07:30:14.858Z,100413.27
2019-03-09T07:32:45.885Z,100415.39
2019-03-09T07:35:16.812Z,100415.97
2019-03-09T07:37:47.770Z,100411.78
2019-03-09T07:40:19.043Z,100411.27
2019-03-09T07:42:50.183Z,100405.14
2019-03-09T07:45:21.189Z,100413.40
2019-03-09T07:47:53.195Z,100412.20
2019-03-09T07:50:24.183Z,100412.48
2019-03-09T07:52:55.226Z,100405.55
2019-03-09T07:55:26.239Z,100413.06
2019-03-09T07:57:59.641Z,100411.58
2019-03-09T08:00:30.010Z,100420.78
2019-03-09T08:03:00.766Z,100428.31
2019-03-09T08:05:31.830Z,100414.25
2019-03-09T08:08:02.844Z,100418.97
2019-03-09T08:10:33.793Z,100420.86
2019-03-09T08:13:05.013Z,100416.00
2019-03-09T08:15:36.101Z,100417.11
2019-03-09T08:18:07.052Z,100415.80
2019-03-09T08:20:39.149Z,100410.27
2019-03-09T08:23:10.179Z,100413.86
2019-03-09T08:25:41.165Z,100413.14
2019-03-09T08:28:12.205Z,100403.44
2019-03-09T08:30:43.247Z,100401.44
2019-03-09T08:33:14.307Z,100398.86
2019-03-09T08:35:45.182Z,100400.89
2019-03-09T08:38:16.263Z,100399.28
2019-03-09T08:40:47.184Z,100394.89
2019-03-09T08:43:18.104Z,100396.09
2019-03-09T08:45:49.150Z,100393.89
2019-03-09T08:48:21.011Z,100394.69
2019-03-09T08:50:52.011Z,100398.98
2019-03-09T08:53:23.098Z,100392.30
2019-03-09T08:56:07.120Z,100387.75
2019-03-09T08:58:45.266Z,100396.50
2019-03-09T09:01:16.936Z,100394.27
2019-03-09T09:03:47.960Z,100393.98
2019-03-09T09:06:18.969Z,100401.86
2019-03-09T09:08:50.159Z,100401.16
2019-03-09T09:11:21.191Z,100401.16
2019-03-09T09:13:52.210Z,100404.40
2019-03-09T09:16:23.226Z,100407.67
2019-03-09T09:18:54.187Z,100395.56
2019-03-09T09:21:25.150Z,100388.63
2019-03-09T09:23:57.170Z,100389.02
2019-03-09T09:26:28.135Z,100382.64
2019-03-09T09:28:59.122Z,100386.09
2019-03-09T09:31:30.004Z,100378.92
2019-03-09T09:34:01.099Z,100373.64
2019-03-09T09:36:32.104Z,100376.14
2019-03-09T09:39:04.894Z,100380.53
2019-03-09T09:41:39.721Z,100381.30
2019-03-09T09:44:10.744Z,100381.14
2019-03-09T09:46:41.699Z,100385.61
2019-03-09T09:49:13.603Z,100381.48
2019-03-09T09:51:44.765Z,100381.31
2019-03-09T09:54:16.956Z,100373.83
2019-03-09T09:56:47.878Z,100373.59
2019-03-09T09:59:18.821Z,100369.41
2019-03-09T10:01:49.815Z,100366.87
2019-03-09T10:04:20.733Z,100364.19
2019-03-09T10:06:51.696Z,100368.77
2019-03-09T10:09:23.943Z,100356.22
2019-03-09T10:11:54.956Z,100357.86
2019-03-09T10:14:27.958Z,100356.08
2019-03-09T10:16:58.891Z,100351.63
2019-03-09T10:19:29.838Z,100345.41
2019-03-09T10:22:00.609Z,100339.55
2019-03-09T10:24:31.566Z,100343.80
2019-03-09T10:27:02.486Z,100338.36
2019-03-09T10:29:34.028Z,100342.38
2019-03-09T10:32:05.500Z,100343.20
2019-03-09T10:34:36.483Z,100335.98
2019-03-09T10:37:10.606Z,100330.08
2019-03-09T10:39:41.654Z,100317.47
2019-03-09T10:42:12.622Z,100323.69
2019-03-09T10:44:43.727Z,100318.36
2019-03-09T10:47:16.855Z,100308.18
2019-03-09T10:49:50.596Z,100296.03
2019-03-09T10:52:22.005Z,100294.96
2019-03-09T10:54:53.205Z,100290.27
2019-03-09T10:57:24.185Z,100287.23
2019-03-09T10:59:56.913Z,100283.88
2019-03-09T11:02:27.922Z,100282.31
2019-03-09T11:04:59.044Z,100270.57
2019-03-09T11:07:30.176Z,100266.84
2019-03-09T11:10:01.484Z,100257.34
2019-03-09T11:12:32.509Z,100253.12
2019-03-09T11:15:04.217Z,100240.91
2019-03-09T11:17:35.128Z,100243.77
2019-03-09T11:20:09.368Z,100242.86
2019-03-09T11:22:44.691Z,100248.52
2019-03-09T11:25:16.959Z,100250.48
2019-03-09T11:27:48.037Z,100243.59
2019-03-09T11:30:28.307Z,100240.22
2019-03-09T11:32:59.247Z,100234.95
2019-03-09T11:35:32.918Z,100241.52
2019-03-09T11:38:06.501Z,100235.22
2019-03-09T11:40:37.589Z,100227.28
2019-03-09T11:43:10.455Z,100224.48
2019-03-09T11:45:43.216Z,100203.59
2019-03-09T11:48:14.133Z,100206.28
2019-03-09T11:50:48.096Z,100199.95
2019-03-09T11:53:21.844Z,100197.34
2019-03-09T11:55:54.697Z,100193.31
2019-03-09T11:58:27.388Z,100185.04
2019-03-09T12:01:04.152Z,100177.69
2019-03-09T12:03:35.193Z,100184.98
2019-03-09T12:06:06.282Z,100186.41
2019-03-09T12:08:40.493Z,100186.11
2019-03-09T12:11:13.261Z,100179.98
2019-03-09T12:13:44.288Z,100178.06
2019-03-09T12:16:15.455Z,100169.84
2019-03-09T12:18:46.434Z,100166.27
2019-03-09T12:21:17.463Z,100169.59
2019-03-09T12:23:48.302Z,100165.44
2019-03-09T12:26:24.052Z,100153.20
2019-03-09T12:28:58.168Z,100143.83
2019-03-09T12:31:29.228Z,100143.73
2019-03-09T12:34:00.154Z,100143.45
2019-03-09T12:36:34.134Z,100135.08
2019-03-09T12:39:09.657Z,100129.56
2019-03-09T12:41:44.148Z,100120.59
2019-03-09T12:44:15.632Z,100115.09
2019-03-09T12:46:46.633Z,100116.03
2019-03-09T12:49:24.537Z,100113.12
2019-03-09T12:51:58.287Z,100099.94
2019-03-09T12:54:30.934Z,100096.05
2019-03-09T12:57:03.764Z,100090.31
2019-03-09T12:59:39.057Z,100086.23
2019-03-09T13:02:10.272Z,100085.59
2019-03-09T13:04:44.283Z,100075.02
2019-03-09T13:07:23.525Z,100072.39
2019-03-09T13:10:04.261Z,100072.70
2019-03-09T13:12:35.544Z,100068.28
2019-03-09T13:15:08.784Z,100070.62
2019-03-09T13:18:17.515Z,100071.81
2019-03-09T13:20:48.606Z,100075.72
2019-03-09T13:23:21.835Z,100075.50
2019-03-09T13:25:52.676Z,100065.14
2019-03-09T13:28:30.893Z,100061.41
2019-03-09T13:31:02.213Z,100062.37
2019-03-09T13:33:36.083Z,100059.66
2019-03-09T13:36:08.718Z,100054.59
2019-03-09T13:38:39.658Z,100056.80
2019-03-09T13:41:10.686Z,100048.43
2019-03-09T13:43:41.747Z,100048.84
2019-03-09T13:46:12.665Z,100045.58
2019-03-09T13:48:43.972Z,100043.72
2019-03-09T13:51:14.932Z,100038.66
2019-03-09T13:53:48.510Z,100038.13
2019-03-09T13:56:18.977Z,100033.73
2019-03-09T13:58:51.382Z,100028.44
2019-03-09T14:01:22.398Z,100026.34
2019-03-09T14:03:53.707Z,100024.19
2019-03-09T14:06:25.839Z,100028.81
2019-03-09T14:08:57.037Z,100021.62
2019-03-09T14:11:29.880Z,100016.42
2019-03-09T14:14:02.665Z,100012.03
2019-03-09T14:16:33.686Z,100017.00
2019-03-09T14:19:04.665Z,100023.86
2019-03-09T14:21:36.794Z,100020.27
2019-03-09T14:24:07.877Z,99996.29
2019-03-09T14:26:38.896Z,100014.80
2019-03-09T14:29:10.203Z,100011.54
2019-03-09T14:31:41.313Z,100003.98
2019-03-09T14:34:14.406Z,99998.88
2019-03-09T14:36:45.306Z,100010.47
2019-03-09T14:39:17.870Z,100009.16
2019-03-09T14:41:54.122Z,99994.00
2019-03-09T14:44:34.613Z,99999.94
2019-03-09T14:47:11.020Z,99994.86
2019-03-09T14:49:45.154Z,99993.89
2019-03-09T14:52:17.074Z,99991.05
2019-03-09T14:54:48.955Z,99990.09
2019-03-09T14:57:20.026Z,99976.47
2019-03-09T14:59:51.190Z,99980.94
2019-03-09T15:02:22.277Z,99983.66
2019-03-09T15:04:57.489Z,99986.09
2019-03-09T15:07:31.381Z,99982.55
2019-03-09T15:10:05.601Z,99979.40
2019-03-09T15:12:36.517Z,99977.81
2019-03-09T15:15:16.573Z,99973.06
2019-03-09T15:17:53.253Z,99969.68
2019-03-09T15:20:29.001Z,99968.63
2019-03-09T15:23:02.650Z,99967.90
2019-03-09T15:25:33.613Z,99960.00
2019-03-09T15:28:08.037Z,99964.69
2019-03-09T15:30:40.393Z,99957.25
2019-03-09T15:33:11.844Z,99954.70
2019-03-09T15:35:43.295Z,99949.70
2019-03-09T15:38:14.578Z,99941.38
2019-03-09T15:40:49.228Z,99947.85
2019-03-09T15:43:22.089Z,99945.14
2019-03-09T15:45:53.962Z,99947.75
2019-03-09T15:48:25.066Z,99938.67
2019-03-09T15:50:59.406Z,99941.50
2019-03-09T15:53:30.595Z,99942.00
2019-03-09T15:56:02.532Z,99941.35
2019-03-09T15:58:33.724Z,99940.73
2019-03-09T16:01:07.679Z,99938.67
2019-03-09T16:03:41.495Z,99940.87
2019-03-09T16:06:12.438Z,99934.27
2019-03-09T16:08:50.860Z,99927.73
2019-03-09T16:11:23.412Z,99929.02
2019-03-09T16:13:56.062Z,99918.25
2019-03-09T16:16:27.135Z,99912.44
2019-03-09T16:18:58.204Z,99914.34
2019-03-09T16:21:29.252Z,99913.25
2019-03-09T16:24:01.912Z,99915.06
2019-03-09T16:26:32.920Z,99910.20
2019-03-09T16:29:05.346Z,99910.98
2019-03-09T16:31:36.386Z,99909.82
2019-03-09T16:34:08.541Z,99909.11
2019-03-09T16:36:41.234Z,99906.44
2019-03-09T16:39:13.906Z,99902.81
2019-03-09T16:41:48.338Z,99900.89
2019-03-09T16:44:22.434Z,99889.49
2019-03-09T16:46:55.238Z,99890.64
2019-03-09T16:49:26.361Z,99890.12
2019-03-09T16:52:04.498Z,99882.28
2019-03-09T16:54:39.570Z,99884.00
2019-03-09T16:57:12.750Z,99872.84
2019-03-09T16:59:44.416Z,99873.08
2019-03-09T17:02:27.340Z,99868.05
2019-03-09T17:04:59.315Z,99868.98
2019-03-09T17:07:26.081Z,99866.77
2019-03-09T17:09:58.544Z,99862.53
2019-03-09T17:12:29.510Z,99863.48
2019-03-09T17:15:00.563Z,99856.80
2019-03-09T17:17:33.179Z,99853.17
2019-03-09T17:20:08.519Z,99850.75
2019-03-09T17:22:39.569Z,99851.79
2019-03-09T17:25:10.713Z,99844.30
2019-03-09T17:27:45.678Z,99832.12
2019-03-09T17:30:21.688Z,99829.30
2019-03-09T17:32:52.701Z,99829.75
2019-03-09T17:35:28.308Z,99835.90
2019-03-09T17:37:59.385Z,99837.72
2019-03-09T17:40:36.041Z,99837.48
2019-03-09T17:43:09.946Z,99847.55
2019-03-09T17:45:41.023Z,99845.95
2019-03-09T17:48:12.097Z,99861.33
2019-03-09T17:50:43.078Z,99856.91
2019-03-09T17:53:14.199Z,99855.98
2019-03-09T17:55:45.279Z,99862.66
2019-03-09T17:58:20.207Z,99884.99
2019-03-09T18:00:51.365Z,99877.92
2019-03-09T18:03:24.319Z,99894.91
2019-03-09T18:05:55.292Z,99921.14
2019-03-09T18:08:28.311Z,99909.13
2019-03-09T18:11:13.258Z,99935.28
2019-03-09T18:13:44.800Z,99938.07
2019-03-09T18:16:15.918Z,99944.97
2019-03-09T18:18:46.844Z,99960.44
2019-03-09T18:21:17.947Z,99945.21
2019-03-09T18:23:48.955Z,99937.52
2019-03-09T18:26:19.948Z,99945.98
2019-03-09T18:28:51.853Z,99940.92
2019-03-09T18:31:26.146Z,99929.41
2019-03-09T18:34:02.094Z,99930.41
2019-03-09T18:36:33.763Z,99926.30
2019-03-09T18:39:08.759Z,99913.84
2019-03-09T18:41:39.875Z,99901.46
2019-03-09T18:44:10.796Z,99876.97
2019-03-09T18:46:41.797Z,99869.33
2019-03-09T18:49:13.350Z,99869.05
2019-03-09T18:51:44.355Z,99876.25
2019-03-09T18:54:15.330Z,99885.70
2019-03-09T18:56:46.256Z,99883.56
2019-03-09T18:59:18.194Z,99888.34
2019-03-09T19:01:49.046Z,99880.22
2019-03-09T19:04:20.058Z,99880.74
2019-03-09T19:06:51.036Z,99865.86
2019-03-09T19:09:22.091Z,99859.53
2019-03-09T19:11:55.151Z,99850.22
2019-03-09T19:14:26.306Z,99840.77
2019-03-09T19:16:57.130Z,99837.98
2019-03-09T19:19:27.962Z,99827.14
2019-03-09T19:22:01.437Z,99822.61
2019-03-09T19:24:33.352Z,99813.52
2019-03-09T19:27:04.230Z,99802.09
2019-03-09T19:29:35.049Z,99795.60
2019-03-09T19:32:05.866Z,99795.21
2019-03-09T19:34:36.836Z,99783.56
2019-03-09T19:37:07.739Z,99777.02
2019-03-09T19:39:40.489Z,99776.45
2019-03-09T19:42:11.596Z,99768.09
2019-03-09T19:44:45.275Z,99768.51
2019-03-09T19:47:16.121Z,99762.98
2019-03-09T19:49:50.450Z,99752.68
2019-03-09T19:52:21.251Z,99754.73
2019-03-09T19:54:52.182Z,99749.20
2019-03-09T19:57:23.043Z,99743.35
2019-03-09T19:59:54.875Z,99742.16
2019-03-09T20:02:25.884Z,99743.89
2019-03-09T20:04:56.763Z,99744.00
2019-03-09T20:07:27.760Z,99743.28
2019-03-09T20:09:58.854Z,99728.59
2019-03-09T20:12:30.055Z,99716.36
2019-03-09T20:15:00.941Z,99727.23
2019-03-09T20:17:31.947Z,99723.25
2019-03-09T20:20:06.621Z,99720.70
2019-03-09T20:22:37.744Z,99714.28
2019-03-09T20:25:12.666Z,99706.59
2019-03-09T20:27:45.085Z,99707.45
2019-03-09T20:30:17.649Z,99703.15
2019-03-09T20:32:48.594Z,99706.16
2019-03-09T20:35:23.269Z,99704.54
2019-03-09T20:37:56.386Z,99701.78
2019-03-09T20:40:27.542Z,99699.23
2019-03-09T20:43:01.674Z,99698.05
2019-03-09T20:45:32.759Z,99701.16
2019-03-09T20:48:03.596Z,99697.73
2019-03-09T20:50:34.465Z,99708.31
2019-03-09T20:53:05.393Z,99698.77
2019-03-09T20:55:36.299Z,99693.67
2019-03-09T20:58:07.167Z,99690.20
2019-03-09T21:00:39.225Z,99690.70
2019-03-09T21:03:10.473Z,99693.06
2019-03-09T21:05:41.325Z,99683.33
2019-03-09T21:08:13.519Z,99679.56
2019-03-09T21:10:44.567Z,99689.95
2019-03-09T21:13:17.091Z,99684.45
2019-03-09T21:15:49.502Z,99689.72
2019-03-09T21:18:20.298Z,99683.59
2019-03-09T21:20:51.165Z,99682.90
2019-03-09T21:23:25.250Z,99678.23
2019-03-09T21:25:56.198Z,99674.15
2019-03-09T21:28:27.332Z,99673.06
2019-03-09T21:30:58.699Z,99670.70
2019-03-09T21:33:29.691Z,99678.59
2019-03-09T21:36:00.563Z,99681.34
2019-03-09T21:38:31.482Z,99676.34
2019-03-09T21:41:03.256Z,99674.16
2019-03-09T21:43:34.246Z,99656.06
2019-03-09T21:46:05.188Z,99651.61
2019-03-09T21:48:36.001Z,99646.02
2019-03-09T21:51:06.942Z,99650.84
2019-03-09T21:53:37.812Z,99643.42
2019-03-09T21:56:08.694Z,99637.83
2019-03-09T21:58:39.534Z,99637.43
2019-03-09T22:01:11.186Z,99631.66
2019-03-09T22:03:42.140Z,99628.61
2019-03-09T22:06:13.020Z,99631.19
2019-03-09T22:08:43.936Z,99626.68
2019-03-09T22:11:14.886Z,99626.52
2019-03-09T22:13:45.758Z,99619.95
2019-03-09T22:16:16.590Z,99619.77
2019-03-09T22:18:47.718Z,99624.44
2019-03-09T22:21:18.923Z,99620.86
2019-03-09T22:23:49.783Z,99617.34
2019-03-09T22:26:20.701Z,99622.12
2019-03-09T22:28:51.576Z,99617.64
2019-03-09T22:31:22.425Z,99610.72
2019-03-09T22:33:53.411Z,99611.92
2019-03-09T22:36:25.246Z,99610.95
2019-03-09T22:38:56.223Z,99612.91
2019-03-09T22:41:28.167Z,99615.50
2019-03-09T22:43:58.954Z,99608.70
2019-03-09T22:46:29.755Z,99608.12
2019-03-09T22:49:00.610Z,99613.88
2019-03-09T22:51:31.448Z,99605.83
2019-03-09T22:54:02.268Z,99608.58
2019-03-09T22:56:33.165Z,99613.31
2019-03-09T22:59:03.980Z,99610.59
2019-03-09T23:01:35.056Z,99604.96
2019-03-09T23:04:06.755Z,99613.78
2019-03-09T23:06:37.734Z,99606.33
2019-03-09T23:09:08.554Z,99598.67
2019-03-09T23:11:39.449Z,99608.03
2019-03-09T23:14:10.317Z,99610.28
2019-03-09T23:16:41.241Z,99618.34
2019-03-09T23:19:12.198Z,99613.40
2019-03-09T23:21:43.057Z,99611.31
2019-03-09T23:24:13.864Z,99604.22
2019-03-09T23:26:45.852Z,99607.44
2019-03-09T23:29:16.723Z,99598.69
2019-03-09T23:31:47.655Z,99586.98
2019-03-09T23:34:18.532Z,99594.42
2019-03-09T23:36:49.359Z,99597.89
2019-03-09T23:39:20.171Z,99596.60
2019-03-09T23:41:51.011Z,99590.91
2019-03-09T23:44:21.894Z,99588.09
2019-03-09T23:46:52.807Z,99594.02
2019-03-09T23:49:23.658Z,99589.02
2019-03-09T23:51:54.562Z,99586.17
2019-03-09T23:54:25.397Z,99587.06
2019-03-09T23:56:56.321Z,99581.34
2019-03-09T23:59:27.206Z,99584.91
